Time;durP1;ratioP1;P1;durP2;ratioP2;P2;SDS_P1;SDS_P2;PMS_P1;PMS_P2;Temp;Humidity;BMP_temperature;BMP_pressure;BME280_temperature;BME280_humidity;BME280_pressure;Samples;Min_cycle;Max_cycle;Signal;HPM_P1;HPM_P2
2021/07/03 00:01:35;;;;;;;4.32;2.78;;;538.40;1459.20;;;;;;5093004;28;20110;-70
2021/07/03 00:04:00;;;;;;;5.43;2.38;;;538.40;1459.20;;;;;;5092876;28;20391;-69
2021/07/03 00:06:26;;;;;;;7.10;2.70;;;538.30;1484.80;;;;;;5092697;28;20084;-70
2021/07/03 00:08:52;;;;;;;4.57;2.67;;;538.40;1459.20;;;;;;5092900;28;20043;-69
2021/07/03 00:11:18;;;;;;;6.00;2.58;;;538.40;1459.20;;;;;;5093000;28;20529;-69
2021/07/03 00:13:44;;;;;;;4.25;2.80;;;538.40;1484.80;;;;;;5091396;28;20530;-69
2021/07/03 00:16:10;;;;;;;4.45;2.47;;;538.30;1484.80;;;;;;5093078;28;20073;-69
2021/07/03 00:18:36;;;;;;;3.88;2.47;;;538.10;1510.40;;;;;;5092804;28;20062;-70
2021/07/03 00:21:03;;;;;;;5.03;2.28;;;538.10;1484.80;;;;;;5092379;28;20035;-69
2021/07/03 00:23:30;;;;;;;4.75;2.70;;;538.10;1510.40;;;;;;5092337;28;20027;-70
2021/07/03 00:25:56;;;;;;;4.60;2.50;;;538.10;1484.80;;;;;;5089999;28;20020;-70
2021/07/03 00:28:22;;;;;;;4.22;3.00;;;538.10;1484.80;;;;;;5092717;28;20019;-70
2021/07/03 00:30:48;;;;;;;4.20;2.40;;;538.10;1484.80;;;;;;5092424;28;20028;-71
2021/07/03 00:33:14;;;;;;;11.07;2.63;;;538.00;1484.80;;;;;;5092349;28;20016;-71
2021/07/03 00:35:40;;;;;;;2.65;2.15;;;538.00;1484.80;;;;;;5091086;28;20108;-71
2021/07/03 00:38:05;;;;;;;7.13;2.70;;;538.10;1484.80;;;;;;5091120;28;20015;-70
2021/07/03 00:40:31;;;;;;;4.03;2.78;;;538.10;1484.80;;;;;;5091416;28;20352;-70
2021/07/03 00:42:57;;;;;;;4.03;2.53;;;538.10;1484.80;;;;;;5092200;28;20532;-70
2021/07/03 00:45:23;;;;;;;5.55;2.58;;;538.10;1484.80;;;;;;5092257;28;20028;-70
2021/07/03 00:47:50;;;;;;;3.22;2.67;;;538.00;1510.40;;;;;;5092174;28;20024;-71
2021/07/03 00:50:16;;;;;;;4.13;2.72;;;538.00;1510.40;;;;;;5090934;28;20020;-70
2021/07/03 00:52:43;;;;;;;7.70;2.55;;;538.00;1510.40;;;;;;5092019;28;20039;-70
2021/07/03 00:55:10;;;;;;;5.00;2.55;;;537.90;1510.40;;;;;;5089361;28;20016;-70
2021/07/03 00:57:41;;;;;;;4.22;2.33;;;537.90;1510.40;;;;;;5092141;28;20556;-69
2021/07/03 01:00:07;;;;;;;4.65;2.60;;;537.90;1510.40;;;;;;5093024;28;20020;-70
2021/07/03 01:02:33;;;;;;;3.92;2.70;;;537.90;1510.40;;;;;;5093652;28;20131;-70
2021/07/03 01:04:59;;;;;;;4.85;2.60;;;537.90;1510.40;;;;;;5093389;28;20439;-70
2021/07/03 01:07:25;;;;;;;3.58;2.42;;;537.90;1510.40;;;;;;5093306;28;20046;-70
2021/07/03 01:09:51;;;;;;;3.50;2.35;;;537.90;1510.40;;;;;;5093232;28;20054;-70
2021/07/03 01:12:17;;;;;;;5.25;2.90;;;537.90;1510.40;;;;;;5093291;28;20024;-70
2021/07/03 01:14:48;;;;;;;7.20;2.70;;;537.80;1510.40;;;;;;5093311;28;20020;-70
2021/07/03 01:17:15;;;;;;;5.18;2.90;;;537.80;1510.40;;;;;;5093201;28;20028;-70
2021/07/03 01:19:43;;;;;;;5.18;2.30;;;537.80;1510.40;;;;;;5092343;28;20032;-70
2021/07/03 01:22:11;;;;;;;5.72;2.97;;;537.70;1536.00;;;;;;5090349;28;20063;-71
2021/07/03 01:24:38;;;;;;;3.40;2.40;;;537.60;1536.00;;;;;;5092693;28;20410;-70
2021/07/03 01:27:05;;;;;;;3.10;2.20;;;537.60;1536.00;;;;;;5093253;28;20032;-69
2021/07/03 01:29:33;;;;;;;4.95;2.40;;;512.90;1536.00;;;;;;5094079;28;20027;-70
2021/07/03 01:31:59;;;;;;;4.45;2.70;;;512.90;1510.40;;;;;;5092018;28;20051;-70
2021/07/03 01:34:29;;;;;;;3.53;2.47;;;512.90;1510.40;;;;;;5093266;28;20051;-70
2021/07/03 01:36:56;;;;;;;4.28;2.85;;;512.90;1536.00;;;;;;5093198;28;20032;-71
2021/07/03 01:39:23;;;;;;;3.38;2.72;;;512.80;1536.00;;;;;;5093225;28;20021;-70
2021/07/03 01:41:49;;;;;;;6.30;2.72;;;512.70;1561.60;;;;;;5093179;28;20032;-70
2021/07/03 01:44:26;;;;;;;3.28;2.53;;;512.80;1536.00;;;;;;5093228;28;20087;-70
2021/07/03 01:46:55;;;;;;;2.97;2.50;;;512.80;1536.00;;;;;;5093395;28;20035;-70
2021/07/03 01:49:21;;;;;;;3.65;2.60;;;512.70;1536.00;;;;;;5093031;28;20376;-70
2021/07/03 01:51:48;;;;;;;3.67;2.20;;;512.70;1536.00;;;;;;5094062;28;20046;-70
2021/07/03 01:54:14;;;;;;;3.40;2.42;;;512.70;1536.00;;;;;;5096894;28;20021;-70
2021/07/03 01:56:42;;;;;;;5.53;2.78;;;512.70;1536.00;;;;;;5096870;28;20028;-70
2021/07/03 01:59:09;;;;;;;3.42;2.53;;;512.70;1536.00;;;;;;5095526;28;20028;-70
2021/07/03 02:01:35;;;;;;;4.28;2.50;;;512.60;1536.00;;;;;;5097074;28;20429;-70
2021/07/03 02:04:01;;;;;;;4.95;2.72;;;512.50;1561.60;;;;;;5096700;28;20024;-70
2021/07/03 02:06:28;;;;;;;4.03;2.65;;;512.50;1561.60;;;;;;5096574;28;20031;-70
2021/07/03 02:08:54;;;;;;;4.15;2.78;;;512.50;1536.00;;;;;;5096609;28;20032;-70
2021/07/03 02:11:20;;;;;;;4.13;3.00;;;512.50;1561.60;;;;;;5096584;28;20034;-70
2021/07/03 02:13:46;;;;;;;5.28;2.97;;;512.40;1561.60;;;;;;5095247;28;20384;-71
2021/07/03 02:16:11;;;;;;;7.22;2.90;;;512.30;1561.60;;;;;;5096544;28;20031;-71
2021/07/03 02:18:37;;;;;;;4.93;2.63;;;512.30;1561.60;;;;;;5096756;28;20028;-70
2021/07/03 02:21:03;;;;;;;4.05;2.20;;;512.20;1561.60;;;;;;5096662;28;20016;-71
2021/07/03 02:23:29;;;;;;;3.58;2.90;;;512.10;1587.20;;;;;;5096242;28;20047;-70
2021/07/03 02:25:58;;;;;;;3.60;2.78;;;512.00;1587.20;;;;;;5096579;28;20039;-71
2021/07/03 02:28:24;;;;;;;4.70;2.40;;;487.30;1612.80;;;;;;5095052;28;20081;-70
2021/07/03 02:30:52;;;;;;;4.97;2.60;;;487.20;1638.40;;;;;;5096610;28;20042;-70
2021/07/03 02:33:18;;;;;;;6.22;2.85;;;487.10;1638.40;;;;;;5096791;28;20111;-71
2021/07/03 02:35:44;;;;;;;3.67;2.55;;;487.10;1638.40;;;;;;5096478;28;20441;-70
2021/07/03 02:38:11;;;;;;;6.00;2.67;;;487.10;1612.80;;;;;;5096152;28;20020;-70
2021/07/03 02:40:36;;;;;;;4.38;2.55;;;487.20;1612.80;;;;;;5096951;28;20032;-70
2021/07/03 02:43:03;;;;;;;3.05;2.35;;;487.20;1612.80;;;;;;5096238;28;20020;-70
2021/07/03 02:45:29;;;;;;;6.38;2.70;;;487.20;1612.80;;;;;;5095930;28;20028;-70
2021/07/03 02:47:54;;;;;;;5.65;2.80;;;487.20;1612.80;;;;;;5095887;28;20370;-70
2021/07/03 02:50:21;;;;;;;3.25;2.53;;;487.20;1612.80;;;;;;5096114;28;20065;-70
2021/07/03 02:52:47;;;;;;;4.68;2.38;;;487.20;1612.80;;;;;;5095951;28;20070;-70
2021/07/03 02:55:14;;;;;;;3.42;2.35;;;487.20;1612.80;;;;;;5096006;28;20016;-70
2021/07/03 02:57:40;;;;;;;5.28;2.67;;;487.20;1612.80;;;;;;5095655;28;20024;-70
2021/07/03 03:00:17;;;;;;;4.03;2.53;;;487.20;1612.80;;;;;;5096443;28;20027;-70
2021/07/03 03:02:43;;;;;;;3.50;2.55;;;487.20;1638.40;;;;;;5095550;28;20099;-70
2021/07/03 03:05:10;;;;;;;7.38;3.00;;;487.20;1612.80;;;;;;5094655;28;20135;-70
2021/07/03 03:07:38;;;;;;;8.07;3.17;;;487.10;1638.40;;;;;;5095720;28;20035;-70
2021/07/03 03:10:06;;;;;;;5.80;3.00;;;487.10;1664.00;;;;;;5095381;28;20524;-70
2021/07/03 03:12:32;;;;;;;7.60;3.25;;;487.10;1638.40;;;;;;5095444;28;20426;-70
2021/07/03 03:14:58;;;;;;;4.80;2.67;;;487.00;1664.00;;;;;;5095248;28;20106;-71
2021/07/03 03:17:24;;;;;;;4.25;2.70;;;487.10;1638.40;;;;;;5095328;28;20020;-70
2021/07/03 03:19:50;;;;;;;5.05;2.70;;;487.10;1638.40;;;;;;5095257;28;20095;-70
2021/07/03 03:22:16;;;;;;;4.10;2.70;;;487.10;1638.40;;;;;;5095495;28;20024;-71
2021/07/03 03:24:41;;;;;;;6.55;2.80;;;487.10;1638.40;;;;;;5095054;28;20127;-71
2021/07/03 03:27:08;;;;;;;3.53;2.85;;;487.00;1664.00;;;;;;5095013;28;20028;-70
2021/07/03 03:29:34;;;;;;;3.92;2.63;;;487.10;1664.00;;;;;;5095328;28;20051;-70
2021/07/03 03:32:00;;;;;;;4.70;2.95;;;487.10;1664.00;;;;;;5094948;28;20027;-70
2021/07/03 03:34:26;;;;;;;4.00;3.00;;;487.00;1664.00;;;;;;5094875;28;20032;-70
2021/07/03 03:36:52;;;;;;;3.33;2.50;;;487.00;1664.00;;;;;;5094972;28;20024;-70
2021/07/03 03:39:18;;;;;;;7.03;3.00;;;487.10;1664.00;;;;;;5094816;28;20376;-70
2021/07/03 03:41:43;;;;;;;3.90;2.60;;;487.00;1664.00;;;;;;5094861;28;20020;-70
2021/07/03 03:44:09;;;;;;;4.13;2.53;;;487.00;1689.60;;;;;;5095078;28;20024;-70
2021/07/03 03:46:35;;;;;;;6.45;2.90;;;486.90;1664.00;;;;;;5094619;28;20038;-70
2021/07/03 03:49:01;;;;;;;10.88;3.00;;;486.90;1689.60;;;;;;5094722;28;20028;-70
2021/07/03 03:51:28;;;;;;;5.00;2.90;;;486.90;1689.60;;;;;;5094916;28;20099;-71
2021/07/03 03:53:54;;;;;;;19.45;3.47;;;486.80;1715.20;;;;;;5094585;28;20024;-71
2021/07/03 03:56:20;;;;;;;20.92;3.92;;;486.70;1740.80;;;;;;5094837;28;20095;-71
2021/07/03 03:58:45;;;;;;;33.65;4.05;;;486.70;1715.20;;;;;;5094518;28;20477;-70
2021/07/03 04:01:11;;;;;;;35.60;4.70;;;486.80;1715.20;;;;;;5094468;28;20020;-70
2021/07/03 04:03:37;;;;;;;14.27;3.22;;;486.80;1715.20;;;;;;5093952;28;20043;-70
2021/07/03 04:06:03;;;;;;;10.82;3.10;;;486.80;1715.20;;;;;;5094436;28;20070;-70
2021/07/03 04:08:30;;;;;;;43.30;4.65;;;486.80;1715.20;;;;;;5094131;28;20031;-70
2021/07/03 04:10:56;;;;;;;155.07;9.90;;;486.70;1740.80;;;;;;5094094;28;20020;-69
2021/07/03 04:13:22;;;;;;;18.17;3.03;;;486.80;1740.80;;;;;;5094376;28;20153;-70
2021/07/03 04:15:48;;;;;;;31.38;4.45;;;486.90;1740.80;;;;;;5093877;28;20103;-70
2021/07/03 04:18:14;;;;;;;28.02;3.83;;;486.90;1740.80;;;;;;5093962;28;20028;-70
2021/07/03 04:20:40;;;;;;;93.45;6.93;;;486.90;1740.80;;;;;;5092721;28;20039;-70
2021/07/03 04:23:06;;;;;;;35.63;3.97;;;486.90;1715.20;;;;;;5094319;28;20346;-70
2021/07/03 04:25:32;;;;;;;12.55;2.97;;;487.00;1715.20;;;;;;5093804;28;20075;-70
2021/07/03 04:27:58;;;;;;;16.05;3.72;;;487.00;1740.80;;;;;;5093893;28;20481;-70
2021/07/03 04:30:24;;;;;;;35.08;3.97;;;487.10;1740.80;;;;;;5093878;28;20032;-70
2021/07/03 04:32:50;;;;;;;9.15;2.72;;;487.10;1715.20;;;;;;5094330;28;20101;-70
2021/07/03 04:35:16;;;;;;;4.65;2.35;;;487.20;1715.20;;;;;;5094488;28;20066;-71
2021/07/03 04:37:43;;;;;;;8.23;2.53;;;487.20;1715.20;;;;;;5093611;28;20103;-70
2021/07/03 04:40:09;;;;;;;3.78;2.72;;;487.20;1740.80;;;;;;5093576;28;20063;-69
2021/07/03 04:42:36;;;;;;;6.43;2.70;;;487.20;1740.80;;;;;;5093623;28;20024;-70
2021/07/03 04:45:02;;;;;;;13.30;2.70;;;487.20;1740.80;;;;;;5093826;28;20035;-70
2021/07/03 04:47:28;;;;;;;5.95;2.88;;;512.00;1740.80;;;;;;5093474;28;20193;-70
2021/07/03 04:49:54;;;;;;;9.48;3.03;;;487.30;1740.80;;;;;;5093538;28;20020;-69
2021/07/03 04:52:20;;;;;;;4.75;2.58;;;512.00;1740.80;;;;;;5093460;28;20073;-69
2021/07/03 04:54:46;;;;;;;6.45;3.05;;;512.10;1740.80;;;;;;5093339;28;20035;-69
2021/07/03 04:57:11;;;;;;;3.47;2.47;;;512.00;1740.80;;;;;;5093378;28;20020;-71
2021/07/03 04:59:38;;;;;;;5.03;2.67;;;512.00;1715.20;;;;;;5093546;28;20088;-71
2021/07/03 05:02:05;;;;;;;3.58;2.75;;;512.10;1715.20;;;;;;5093442;28;20020;-71
2021/07/03 05:04:31;;;;;;;5.03;3.20;;;512.20;1715.20;;;;;;5093622;28;20117;-71
2021/07/03 05:06:57;;;;;;;6.78;2.60;;;512.10;1715.20;;;;;;5093221;28;20036;-69
2021/07/03 05:09:23;;;;;;;5.35;2.95;;;512.20;1715.20;;;;;;5093307;28;20020;-70
2021/07/03 05:11:50;;;;;;;7.47;2.72;;;512.20;1715.20;;;;;;5093485;28;20035;-70
2021/07/03 05:14:16;;;;;;;4.88;2.90;;;512.30;1715.20;;;;;;5093579;28;20024;-70
2021/07/03 05:16:42;;;;;;;6.55;2.47;;;512.20;1715.20;;;;;;5093266;28;20077;-70
2021/07/03 05:19:08;;;;;;;7.82;2.78;;;512.20;1715.20;;;;;;5093777;28;20024;-70
2021/07/03 05:21:33;;;;;;;7.18;3.08;;;512.30;1715.20;;;;;;5093511;28;20030;-70
2021/07/03 05:23:59;;;;;;;5.38;2.88;;;512.20;1740.80;;;;;;5092985;28;20039;-70
2021/07/03 05:26:25;;;;;;;5.88;3.03;;;512.10;1766.40;;;;;;5093320;28;20028;-70
2021/07/03 05:28:51;;;;;;;4.97;3.22;;;512.20;1715.20;;;;;;5097233;28;20396;-70
2021/07/03 05:31:17;;;;;;;6.05;3.15;;;512.40;1740.80;;;;;;5097232;28;20024;-70
2021/07/03 05:33:43;;;;;;;3.90;3.00;;;512.30;1766.40;;;;;;5097114;28;20145;-70
2021/07/03 05:36:09;;;;;;;4.57;3.05;;;512.30;1766.40;;;;;;5097381;28;20031;-70
2021/07/03 05:38:41;;;;;;;6.82;2.47;;;512.40;1740.80;;;;;;5097066;28;20024;-70
2021/07/03 05:41:11;;;;;;;5.18;2.42;;;512.50;1766.40;;;;;;5097386;28;20031;-70
2021/07/03 05:43:37;;;;;;;7.55;3.00;;;512.50;1766.40;;;;;;5097232;28;20515;-70
2021/07/03 05:46:04;;;;;;;3.15;2.53;;;512.50;1766.40;;;;;;5097002;28;20353;-70
2021/07/03 05:48:31;;;;;;;7.10;2.83;;;512.60;1740.80;;;;;;5097303;28;20456;-70
2021/07/03 05:50:57;;;;;;;6.75;2.97;;;512.60;1740.80;;;;;;5097031;28;20077;-70
2021/07/03 05:53:22;;;;;;;3.75;2.90;;;512.80;1715.20;;;;;;5096880;28;20107;-70
2021/07/03 05:55:48;;;;;;;3.10;2.75;;;512.90;1715.20;;;;;;5096886;28;20100;-70
2021/07/03 05:58:14;;;;;;;3.75;2.75;;;537.60;1740.80;;;;;;5096899;28;20024;-70
2021/07/03 06:00:40;;;;;;;3.05;2.60;;;537.60;1715.20;;;;;;5096810;28;20032;-70
2021/07/03 06:03:06;;;;;;;5.05;3.13;;;537.70;1715.20;;;;;;5096779;28;20017;-70
2021/07/03 06:05:32;;;;;;;5.60;2.92;;;537.80;1715.20;;;;;;5096686;28;20376;-70
2021/07/03 06:07:58;;;;;;;4.15;3.28;;;537.70;1715.20;;;;;;5096618;28;20536;-69
2021/07/03 06:10:24;;;;;;;8.02;2.80;;;537.80;1715.20;;;;;;5096936;28;20099;-70
2021/07/03 06:12:50;;;;;;;5.25;2.65;;;537.90;1715.20;;;;;;5096651;28;20080;-70
2021/07/03 06:15:17;;;;;;;6.55;3.55;;;538.00;1689.60;;;;;;5096586;28;20108;-69
2021/07/03 06:17:43;;;;;;;9.93;3.42;;;538.00;1715.20;;;;;;5096344;28;20024;-70
2021/07/03 06:20:10;;;;;;;10.68;7.32;;;538.00;1689.60;;;;;;5096443;28;20028;-69
2021/07/03 06:22:38;;;;;;;5.22;3.97;;;538.10;1689.60;;;;;;5096264;28;20448;-70
2021/07/03 06:25:05;;;;;;;180.10;132.23;;;538.10;1689.60;;;;;;5095995;28;20041;-70
2021/07/03 06:27:32;;;;;;;20.95;5.78;;;538.30;1664.00;;;;;;5096038;28;20503;-71
2021/07/03 06:29:58;;;;;;;6.13;3.38;;;538.40;1664.00;;;;;;5096312;28;20048;-70
2021/07/03 06:32:24;;;;;;;11.70;3.80;;;538.50;1664.00;;;;;;5096344;28;20024;-70
2021/07/03 06:34:50;;;;;;;4.05;3.00;;;563.20;1664.00;;;;;;5095983;28;20020;-70
2021/07/03 06:37:16;;;;;;;5.43;3.55;;;563.40;1638.40;;;;;;5095855;28;20134;-70
2021/07/03 06:39:43;;;;;;;5.38;3.00;;;563.50;1664.00;;;;;;5094540;28;20055;-70
2021/07/03 06:42:12;;;;;;;14.43;3.25;;;563.60;1638.40;;;;;;5095953;28;20154;-70
2021/07/03 06:44:38;;;;;;;6.28;3.22;;;563.70;1638.40;;;;;;5096083;28;20024;-70
2021/07/03 06:47:05;;;;;;;4.35;2.58;;;563.80;1638.40;;;;;;5095690;28;20032;-70
2021/07/03 06:49:31;;;;;;;4.43;3.00;;;563.90;1612.80;;;;;;5095756;28;20138;-68
2021/07/03 06:51:57;;;;;;;3.80;3.20;;;564.10;1587.20;;;;;;5095639;28;20024;-70
2021/07/03 06:54:23;;;;;;;9.40;3.22;;;564.10;1612.80;;;;;;5095535;28;20027;-70
2021/07/03 06:56:57;;;;;;;10.38;8.02;;;564.10;1587.20;;;;;;5095548;28;20028;-70
2021/07/03 06:59:24;;;;;;;8.55;5.63;;;588.80;1587.20;;;;;;5095506;28;20027;-72
2021/07/03 07:01:50;;;;;;;11.93;8.13;;;588.80;1587.20;;;;;;5095698;28;20028;-71
2021/07/03 07:04:17;;;;;;;5.80;4.15;;;588.80;1587.20;;;;;;5095632;28;20389;-69
2021/07/03 07:06:43;;;;;;;3.30;3.00;;;588.90;1561.60;;;;;;5095744;28;20028;-70
2021/07/03 07:09:09;;;;;;;16.60;3.58;;;589.00;1561.60;;;;;;5095455;28;20430;-69
2021/07/03 07:11:35;;;;;;;5.85;3.10;;;589.20;1561.60;;;;;;5093453;28;20028;-70
2021/07/03 07:14:00;;;;;;;5.18;3.17;;;589.20;1561.60;;;;;;5094216;28;20111;-70
2021/07/03 07:16:26;;;;;;;7.05;3.80;;;589.30;1536.00;;;;;;5095078;28;20073;-71
2021/07/03 07:18:52;;;;;;;6.32;3.22;;;589.40;1561.60;;;;;;5094758;28;20387;-70
2021/07/03 07:21:18;;;;;;;3.35;2.92;;;589.40;1536.00;;;;;;5093348;28;20016;-69
2021/07/03 07:23:44;;;;;;;11.93;3.50;;;589.40;1536.00;;;;;;5094349;28;20430;-70
2021/07/03 07:26:10;;;;;;;18.77;4.18;;;589.50;1536.00;;;;;;5094636;28;20028;-70
2021/07/03 07:28:35;;;;;;;6.35;3.42;;;589.60;1510.40;;;;;;5094882;28;20021;-71
2021/07/03 07:31:01;;;;;;;5.18;3.20;;;589.60;1510.40;;;;;;5094253;28;20372;-70
2021/07/03 07:33:27;;;;;;;8.80;3.42;;;589.70;1536.00;;;;;;5093100;28;20078;-70
2021/07/03 07:35:53;;;;;;;14.65;3.50;;;589.60;1510.40;;;;;;5094603;28;20031;-70
2021/07/03 07:38:19;;;;;;;8.18;3.38;;;589.60;1510.40;;;;;;5094458;28;20038;-70
2021/07/03 07:40:45;;;;;;;9.50;3.30;;;589.50;1536.00;;;;;;5094952;28;20103;-71
2021/07/03 07:43:11;;;;;;;12.13;4.93;;;589.70;1536.00;;;;;;5094658;28;20027;-72
2021/07/03 07:45:36;;;;;;;6.90;3.08;;;589.70;1536.00;;;;;;5093947;28;20031;-72
2021/07/03 07:48:03;;;;;;;6.20;3.17;;;614.40;1536.00;;;;;;5094150;28;20383;-72
2021/07/03 07:50:28;;;;;;;6.38;3.60;;;614.40;1536.00;;;;;;5094109;28;20031;-68
2021/07/03 07:52:54;;;;;;;8.30;3.30;;;614.50;1510.40;;;;;;5093374;28;20028;-72
2021/07/03 07:55:20;;;;;;;17.35;4.03;;;614.40;1510.40;;;;;;5094879;28;20032;-71
2021/07/03 07:57:46;;;;;;;9.43;4.28;;;614.40;1510.40;;;;;;5094755;28;20120;-71
2021/07/03 08:00:14;;;;;;;9.10;4.95;;;614.40;1510.40;;;;;;5094439;28;20452;-71
2021/07/03 08:02:40;;;;;;;11.68;5.40;;;614.40;1510.40;;;;;;5094379;28;20031;-70
2021/07/03 08:05:06;;;;;;;6.30;4.15;;;614.50;1510.40;;;;;;5094437;28;20085;-71
2021/07/03 08:07:32;;;;;;;9.18;3.40;;;614.60;1510.40;;;;;;5094322;28;20032;-72
2021/07/03 08:09:58;;;;;;;4.40;3.22;;;614.50;1510.40;;;;;;5094360;28;20020;-70
2021/07/03 08:12:24;;;;;;;4.55;3.25;;;614.60;1484.80;;;;;;5094202;28;20053;-70
2021/07/03 08:14:50;;;;;;;6.95;3.60;;;614.70;1510.40;;;;;;5094481;28;20020;-70
2021/07/03 08:17:16;;;;;;;5.78;3.42;;;614.80;1510.40;;;;;;5094339;28;20066;-72
2021/07/03 08:19:42;;;;;;;8.05;4.90;;;614.90;1484.80;;;;;;5092884;28;20067;-72
2021/07/03 08:22:08;;;;;;;6.85;4.45;;;614.90;1484.80;;;;;;5094402;28;20051;-72
2021/07/03 08:24:34;;;;;;;8.25;3.70;;;615.00;1484.80;;;;;;5094013;28;20040;-72
2021/07/03 08:27:00;;;;;;;9.10;3.47;;;615.00;1459.20;;;;;;5094560;28;20074;-72
2021/07/03 08:29:41;;;;;;;5.15;2.97;;;614.90;1484.80;;;;;;5093625;28;20059;-70
2021/07/03 08:32:07;;;;;;;4.70;3.20;;;614.80;1484.80;;;;;;5093867;28;20021;-71
2021/07/03 08:34:33;;;;;;;7.93;3.75;;;614.90;1484.80;;;;;;5094075;28;20024;-71
2021/07/03 08:36:59;;;;;;;8.50;3.47;;;614.80;1484.80;;;;;;5093838;28;20054;-71
2021/07/03 08:39:25;;;;;;;3.28;2.95;;;614.80;1484.80;;;;;;5093771;28;20024;-72
2021/07/03 08:41:51;;;;;;;5.57;2.78;;;614.80;1484.80;;;;;;5094155;28;20020;-72
2021/07/03 08:44:17;;;;;;;6.78;2.95;;;614.90;1484.80;;;;;;5093796;28;20024;-71
2021/07/03 08:46:46;;;;;;;8.85;3.15;;;615.00;1484.80;;;;;;5093742;28;20028;-71
2021/07/03 08:49:12;;;;;;;6.25;3.15;;;615.00;1459.20;;;;;;5093655;28;20020;-72
2021/07/03 08:51:47;;;;;;;10.88;3.20;;;615.00;1484.80;;;;;;5093668;28;20028;-71
2021/07/03 08:54:13;;;;;;;4.70;3.35;;;615.00;1484.80;;;;;;5093923;28;20024;-72
2021/07/03 08:56:39;;;;;;;5.57;3.63;;;615.00;1459.20;;;;;;5093653;28;20532;-71
2021/07/03 08:59:20;;;;;;;11.00;5.95;;;615.00;1484.80;;;;;;5093869;28;20031;-71
2021/07/03 09:01:53;;;;;;;11.05;6.85;;;615.10;1459.20;;;;;;5093675;28;20028;-71
2021/07/03 09:04:32;;;;;;;14.60;5.63;;;615.10;1459.20;;;;;;5093878;28;20541;-71
2021/07/03 09:07:10;;;;;;;6.15;3.20;;;615.10;1459.20;;;;;;5093798;28;20038;-71
2021/07/03 09:09:36;;;;;;;84.20;6.70;;;615.20;1459.20;;;;;;5093859;28;20022;-71
2021/07/03 09:12:02;;;;;;;13.63;3.50;;;615.30;1459.20;;;;;;5093813;28;20167;-72
2021/07/03 09:14:29;;;;;;;4.43;2.92;;;640.00;1433.60;;;;;;5093594;28;20044;-72
2021/07/03 09:16:59;;;;;;;5.15;3.00;;;640.00;1433.60;;;;;;5093474;28;20095;-71
2021/07/03 09:19:29;;;;;;;9.70;3.30;;;640.00;1433.60;;;;;;5093705;28;20024;-72
2021/07/03 09:21:58;;;;;;;5.95;3.03;;;640.00;1433.60;;;;;;5093742;28;20066;-71
2021/07/03 09:24:31;;;;;;;10.80;3.42;;;640.00;1433.60;;;;;;5091901;28;20044;-72
2021/07/03 09:27:02;;;;;;;15.35;4.80;;;615.30;1433.60;;;;;;5092092;28;20032;-72
2021/07/03 09:29:29;;;;;;;8.70;3.60;;;640.00;1433.60;;;;;;5093340;28;20073;-72
2021/07/03 09:31:55;;;;;;;8.75;3.10;;;640.00;1433.60;;;;;;5093561;28;20425;-71
2021/07/03 09:34:22;;;;;;;4.85;2.95;;;615.30;1408.00;;;;;;5093268;28;20020;-71
2021/07/03 09:36:48;;;;;;;9.00;3.20;;;615.30;1408.00;;;;;;5093576;28;20095;-71
2021/07/03 09:39:25;;;;;;;2.78;2.30;;;615.30;1433.60;;;;;;5093226;28;20031;-72
2021/07/03 09:41:52;;;;;;;4.82;2.42;;;615.30;1433.60;;;;;;5091997;28;20465;-71
2021/07/03 09:44:17;;;;;;;19.42;11.20;;;615.30;1408.00;;;;;;5093120;28;20071;-71
2021/07/03 09:46:53;;;;;;;76.78;15.20;;;640.10;1408.00;;;;;;5093084;28;20105;-72
2021/07/03 09:49:24;;;;;;;6.70;2.65;;;640.00;1382.40;;;;;;5093410;28;20039;-72
2021/07/03 09:51:54;;;;;;;14.63;5.07;;;640.10;1382.40;;;;;;5093388;28;20027;-72
2021/07/03 09:54:21;;;;;;;3.45;2.40;;;640.10;1382.40;;;;;;5093259;28;20028;-71
2021/07/03 09:56:58;;;;;;;10.57;4.40;;;640.00;1382.40;;;;;;5093237;28;20032;-72
2021/07/03 09:59:29;;;;;;;5.72;2.95;;;640.00;1408.00;;;;;;5092982;28;20028;-72
2021/07/03 10:01:55;;;;;;;4.63;2.95;;;640.10;1382.40;;;;;;5093034;28;20020;-72
2021/07/03 10:04:21;;;;;;;6.25;3.15;;;640.20;1382.40;;;;;;5092817;28;20426;-71
2021/07/03 10:07:06;;;;;;;5.70;2.20;;;640.20;1408.00;;;;;;5093210;28;20419;-72
2021/07/03 10:09:55;;;;;;;7.13;3.47;;;640.30;1382.40;;;;;;5093009;28;20027;-71
2021/07/03 10:12:30;;;;;;;4.32;2.75;;;640.50;1356.80;;;;;;5092428;28;20115;-70
2021/07/03 10:14:56;;;;;;;7.63;3.67;;;640.50;1331.20;;;;;;5096838;28;20028;-70
2021/07/03 10:17:24;;;;;;;8.00;3.50;;;640.60;1382.40;;;;;;5096786;28;20031;-71
2021/07/03 10:19:50;;;;;;;6.95;2.33;;;640.60;1356.80;;;;;;5096496;28;20020;-70
2021/07/03 10:22:22;;;;;;;6.35;2.53;;;640.60;1356.80;;;;;;5095175;28;20031;-71
2021/07/03 10:25:11;;;;;;;6.00;2.42;;;640.60;1331.20;;;;;;5096330;28;20512;-71
2021/07/03 10:27:48;;;;;;;7.53;2.40;;;640.60;1331.20;;;;;;5096282;28;20036;-71
2021/07/03 10:30:25;;;;;;;4.75;2.83;;;640.60;1331.20;;;;;;5096151;28;20020;-71
2021/07/03 10:33:04;;;;;;;5.93;2.58;;;640.70;1356.80;;;;;;5096135;28;20085;-72
2021/07/03 10:35:51;;;;;;;9.02;2.88;;;640.80;1331.20;;;;;;5096201;28;20100;-69
2021/07/03 10:38:16;;;;;;;8.10;2.97;;;640.80;1331.20;;;;;;5096277;28;20055;-69
2021/07/03 10:40:42;;;;;;;10.20;2.83;;;640.80;1305.60;;;;;;5094471;28;20055;-70
2021/07/03 10:43:11;;;;;;;5.38;2.60;;;640.90;1305.60;;;;;;5095814;28;20020;-69
2021/07/03 10:45:49;;;;;;;9.50;2.97;;;665.60;1331.20;;;;;;5095334;28;20020;-71
2021/07/03 10:48:19;;;;;;;5.20;2.50;;;665.60;1331.20;;;;;;5095100;28;20067;-70
2021/07/03 10:50:46;;;;;;;3.40;2.05;;;665.60;1331.20;;;;;;5095185;28;20017;-70
2021/07/03 10:53:24;;;;;;;7.30;2.42;;;665.60;1305.60;;;;;;5095497;28;20020;-69
2021/07/03 10:55:50;;;;;;;5.22;2.60;;;665.70;1331.20;;;;;;5092772;28;20016;-69
2021/07/03 10:58:25;;;;;;;5.82;2.35;;;665.70;1305.60;;;;;;5095147;28;20022;-70
2021/07/03 11:00:51;;;;;;;5.50;2.42;;;665.80;1305.60;;;;;;5092851;28;20028;-70
2021/07/03 11:03:23;;;;;;;4.18;2.38;;;665.80;1305.60;;;;;;5095479;28;20069;-70
2021/07/03 11:05:51;;;;;;;7.45;2.20;;;665.80;1280.00;;;;;;5095511;28;20024;-70
2021/07/03 11:08:20;;;;;;;3.30;2.20;;;665.80;1280.00;;;;;;5095411;28;20476;-69
2021/07/03 11:10:48;;;;;;;9.77;2.30;;;665.80;1280.00;;;;;;5094592;28;20016;-71
2021/07/03 11:13:21;;;;;;;5.43;2.20;;;665.80;1280.00;;;;;;5093905;28;20028;-70
2021/07/03 11:15:47;;;;;;;3.42;2.40;;;665.90;1305.60;;;;;;5093768;28;20028;-69
2021/07/03 11:18:13;;;;;;;4.57;2.50;;;666.00;1305.60;;;;;;5094573;28;20047;-70
2021/07/03 11:20:40;;;;;;;6.07;2.20;;;666.00;1280.00;;;;;;5095092;28;20031;-71
2021/07/03 11:23:07;;;;;;;6.00;2.40;;;666.10;1254.40;;;;;;5095007;28;20020;-71
2021/07/03 11:25:39;;;;;;;7.15;2.60;;;666.10;1280.00;;;;;;5094137;28;20055;-70
2021/07/03 11:28:11;;;;;;;4.32;2.00;;;666.20;1254.40;;;;;;5094960;28;20425;-72
2021/07/03 11:30:39;;;;;;;5.10;1.85;;;666.20;1254.40;;;;;;5095014;28;20020;-70
2021/07/03 11:33:06;;;;;;;6.38;2.20;;;666.30;1228.80;;;;;;5094920;28;20032;-70
2021/07/03 11:35:33;;;;;;;8.90;3.38;;;666.30;1228.80;;;;;;5094814;28;20048;-70
2021/07/03 11:38:00;;;;;;;5.05;2.25;;;666.30;1254.40;;;;;;5094838;28;20047;-71
2021/07/03 11:40:28;;;;;;;7.55;2.40;;;666.30;1228.80;;;;;;5094936;28;20031;-70
2021/07/03 11:43:04;;;;;;;5.03;2.45;;;666.30;1228.80;;;;;;5094835;28;20056;-70
2021/07/03 11:45:33;;;;;;;4.90;2.25;;;666.40;1254.40;;;;;;5094698;28;20553;-69
2021/07/03 11:48:04;;;;;;;4.45;2.20;;;666.40;1254.40;;;;;;5094756;28;20119;-70
2021/07/03 11:50:36;;;;;;;7.15;2.20;;;666.40;1228.80;;;;;;5094642;28;20092;-71
2021/07/03 11:53:04;;;;;;;8.88;2.30;;;666.50;1228.80;;;;;;5094582;28;20051;-70
2021/07/03 11:55:33;;;;;;;6.63;1.98;;;691.20;1228.80;;;;;;5094521;28;20028;-71
2021/07/03 11:58:00;;;;;;;14.35;2.55;;;691.30;1203.20;;;;;;5094407;28;20047;-70
2021/07/03 12:00:32;;;;;;;10.30;2.50;;;691.30;1203.20;;;;;;5094377;28;20024;-70
2021/07/03 12:02:59;;;;;;;9.40;2.65;;;691.40;1228.80;;;;;;5094437;28;20046;-71
2021/07/03 12:05:33;;;;;;;10.63;2.33;;;691.40;1228.80;;;;;;5094240;28;20020;-70
2021/07/03 12:08:05;;;;;;;29.40;3.33;;;691.50;1228.80;;;;;;5094454;28;20392;-70
2021/07/03 12:10:32;;;;;;;14.75;2.47;;;691.40;1228.80;;;;;;5094265;28;20495;-70
2021/07/03 12:12:58;;;;;;;11.20;2.58;;;691.40;1228.80;;;;;;5094151;28;20468;-71
2021/07/03 12:15:26;;;;;;;14.20;2.20;;;691.50;1228.80;;;;;;5093998;28;20024;-71
2021/07/03 12:17:52;;;;;;;2.33;2.13;;;691.50;1228.80;;;;;;5094103;28;20472;-70